Time;durP1;ratioP1;P1;durP2;ratioP2;P2;SDS_P1;SDS_P2;PMS_P1;PMS_P2;Temp;Humidity;BMP_temperature;BMP_pressure;BME280_temperature;BME280_humidity;BME280_pressure;Samples;Min_cycle;Max_cycle;Signal;HPM_P1;HPM_P2
2022/04/09 00:01:55;;;;;;;;;0.00;0.00;;;;;;;;5091820;27;45392;-75
2022/04/09 00:04:20;;;;;;;;;0.00;0.00;;;;;;;;5095067;27;45608;-76
2022/04/09 00:06:46;;;;;;;;;1.00;0.00;;;;;;;;5093928;27;45491;-78
2022/04/09 00:09:11;;;;;;;;;0.25;0.25;;;;;;;;5089508;27;45335;-77
2022/04/09 00:11:36;;;;;;;;;0.00;0.00;;;;;;;;5092182;27;45469;-73
2022/04/09 00:14:01;;;;;;;;;0.00;0.00;;;;;;;;5093912;27;46546;-73
2022/04/09 00:16:27;;;;;;;;;0.00;0.00;;;;;;;;5093804;27;45477;-74
2022/04/09 00:18:52;;;;;;;;;0.00;0.00;;;;;;;;5096476;27;45340;-75
2022/04/09 00:21:17;;;;;;;;;0.00;0.00;;;;;;;;5093293;27;45580;-74
2022/04/09 00:23:42;;;;;;;;;0.00;0.00;;;;;;;;5092125;27;45529;-74
2022/04/09 00:26:07;;;;;;;;;0.00;0.00;;;;;;;;5092256;27;45279;-74
2022/04/09 00:28:33;;;;;;;;;2.00;0.00;;;;;;;;5093880;27;45271;-71
2022/04/09 00:30:58;;;;;;;;;0.00;0.00;;;;;;;;5096310;27;45261;-71
2022/04/09 00:33:23;;;;;;;;;0.00;0.00;;;;;;;;5093884;27;45842;-71
2022/04/09 00:35:48;;;;;;;;;0.00;0.00;;;;;;;;5090026;27;45521;-71
2022/04/09 00:38:14;;;;;;;;;1.00;1.00;;;;;;;;5093931;27;45457;-72
2022/04/09 00:40:39;;;;;;;;;2.25;0.00;;;;;;;;5094248;27;45596;-71
2022/04/09 00:43:04;;;;;;;;;0.00;0.00;;;;;;;;5098235;27;45452;-71
2022/04/09 00:45:30;;;;;;;;;0.00;0.00;;;;;;;;5097238;27;45338;-71
2022/04/09 00:47:55;;;;;;;;;0.50;0.00;;;;;;;;5097469;27;45582;-71
2022/04/09 00:50:20;;;;;;;;;1.00;0.00;;;;;;;;5094745;27;45410;-70
2022/04/09 00:52:47;;;;;;;;;0.00;0.00;;;;;;;;5095136;27;45321;-70
2022/04/09 00:55:13;;;;;;;;;0.00;0.00;;;;;;;;5098671;27;45391;-71
2022/04/09 00:57:40;;;;;;;;;0.75;0.75;;;;;;;;5098442;27;45965;-71
2022/04/09 01:00:09;;;;;;;;;0.00;0.00;;;;;;;;5097824;27;45275;-71
2022/04/09 01:02:38;;;;;;;;;0.00;0.00;;;;;;;;5097171;27;47308;-71
2022/04/09 01:05:05;;;;;;;;;0.00;0.00;;;;;;;;5096715;27;45568;-70
2022/04/09 01:07:30;;;;;;;;;1.00;1.00;;;;;;;;5097455;27;45335;-71
2022/04/09 01:09:55;;;;;;;;;1.00;0.00;;;;;;;;5099354;27;45569;-70
2022/04/09 01:12:21;;;;;;;;;0.00;0.00;;;;;;;;5097435;27;46086;-71
2022/04/09 01:14:46;;;;;;;;;0.00;0.00;;;;;;;;5094395;27;45420;-71
2022/04/09 01:17:11;;;;;;;;;0.00;0.00;;;;;;;;5096897;27;45377;-71
2022/04/09 01:19:37;;;;;;;;;1.00;1.00;;;;;;;;5096145;27;45541;-71
2022/04/09 01:22:03;;;;;;;;;0.00;0.00;;;;;;;;5099146;27;45409;-71
2022/04/09 01:24:28;;;;;;;;;0.75;0.75;;;;;;;;5096332;27;45542;-71
2022/04/09 01:26:53;;;;;;;;;0.25;0.00;;;;;;;;5096934;27;45328;-71
2022/04/09 01:29:19;;;;;;;;;0.50;0.50;;;;;;;;5096702;27;45368;-71
2022/04/09 01:31:45;;;;;;;;;0.25;0.25;;;;;;;;5096816;27;45651;-71
2022/04/09 01:34:13;;;;;;;;;1.00;1.00;;;;;;;;5098658;27;45442;-71
2022/04/09 01:36:38;;;;;;;;;0.50;0.50;;;;;;;;5098562;27;45346;-70
2022/04/09 01:39:04;;;;;;;;;0.00;0.00;;;;;;;;5098158;27;45252;-70
2022/04/09 01:41:29;;;;;;;;;0.00;0.00;;;;;;;;5098073;27;46392;-71
2022/04/09 01:43:54;;;;;;;;;0.00;0.00;;;;;;;;5097599;27;45312;-71
2022/04/09 01:46:19;;;;;;;;;0.67;0.00;;;;;;;;5097382;27;45360;-70
2022/04/09 01:48:45;;;;;;;;;0.00;0.00;;;;;;;;5097761;27;45452;-71
2022/04/09 01:51:10;;;;;;;;;0.00;0.00;;;;;;;;5093708;27;45571;-70
2022/04/09 01:53:36;;;;;;;;;0.25;0.25;;;;;;;;5094455;27;45356;-71
2022/04/09 01:56:01;;;;;;;;;0.00;0.00;;;;;;;;5096521;27;45492;-70
2022/04/09 01:58:26;;;;;;;;;0.00;0.00;;;;;;;;5096386;27;45257;-71
2022/04/09 02:00:58;;;;;;;;;0.00;0.00;;;;;;;;5079934;27;46595;-71
2022/04/09 02:03:24;;;;;;;;;1.00;1.00;;;;;;;;5077950;27;45561;-71
2022/04/09 02:05:49;;;;;;;;;0.00;0.00;;;;;;;;5095979;27;45560;-70
2022/04/09 02:08:14;;;;;;;;;0.00;0.00;;;;;;;;5095712;27;45417;-70
2022/04/09 02:10:39;;;;;;;;;0.50;0.50;;;;;;;;5081434;27;45688;-71
2022/04/09 02:13:10;;;;;;;;;1.00;0.00;;;;;;;;5098555;27;45446;-70
2022/04/09 02:15:35;;;;;;;;;0.00;0.00;;;;;;;;5096593;27;45538;-71
2022/04/09 02:18:02;;;;;;;;;0.25;0.25;;;;;;;;5095531;27;45457;-71
2022/04/09 02:20:27;;;;;;;;;1.00;0.00;;;;;;;;5093408;27;46156;-71
2022/04/09 02:22:52;;;;;;;;;0.00;0.00;;;;;;;;5093993;27;45284;-71
2022/04/09 02:25:18;;;;;;;;;0.00;0.00;;;;;;;;5097500;27;45299;-71
2022/04/09 02:27:43;;;;;;;;;0.00;0.00;;;;;;;;5094711;27;45322;-71
2022/04/09 02:30:09;;;;;;;;;1.00;1.00;;;;;;;;5095651;27;45341;-70
2022/04/09 02:32:44;;;;;;;;;0.75;0.00;;;;;;;;5095549;27;45237;-71
2022/04/09 02:35:11;;;;;;;;;0.00;0.00;;;;;;;;5094189;27;45466;-71
2022/04/09 02:37:36;;;;;;;;;1.00;1.00;;;;;;;;5077376;27;45706;-71
2022/04/09 02:40:02;;;;;;;;;0.00;0.00;;;;;;;;5097954;27;46591;-71
2022/04/09 02:42:27;;;;;;;;;1.00;1.00;;;;;;;;5096646;27;45244;-71
2022/04/09 02:44:52;;;;;;;;;0.00;0.00;;;;;;;;5095052;27;45358;-70
2022/04/09 02:47:18;;;;;;;;;0.00;0.00;;;;;;;;5089704;27;45533;-70
2022/04/09 02:49:43;;;;;;;;;1.00;1.00;;;;;;;;5095304;27;45376;-70
2022/04/09 02:52:09;;;;;;;;;0.00;0.00;;;;;;;;5097462;27;45477;-71
2022/04/09 02:54:34;;;;;;;;;1.00;1.00;;;;;;;;5093342;27;45553;-71
2022/04/09 02:56:59;;;;;;;;;0.00;0.00;;;;;;;;5093275;27;45527;-70
2022/04/09 02:59:24;;;;;;;;;1.00;1.00;;;;;;;;5093157;27;45560;-70
2022/04/09 03:01:49;;;;;;;;;0.00;0.00;;;;;;;;5095047;27;45439;-71
2022/04/09 03:04:15;;;;;;;;;0.00;0.00;;;;;;;;5096936;27;45347;-70
2022/04/09 03:06:40;;;;;;;;;0.50;0.00;;;;;;;;5096499;27;45439;-70
2022/04/09 03:09:06;;;;;;;;;0.00;0.00;;;;;;;;5095132;27;45484;-71
2022/04/09 03:11:31;;;;;;;;;0.00;0.00;;;;;;;;5094507;27;46685;-71
2022/04/09 03:13:56;;;;;;;;;1.00;1.00;;;;;;;;5094625;27;45308;-71
2022/04/09 03:16:22;;;;;;;;;1.00;0.00;;;;;;;;5095798;27;45339;-71
2022/04/09 03:18:48;;;;;;;;;0.00;0.00;;;;;;;;5095007;27;45585;-70
2022/04/09 03:21:13;;;;;;;;;0.00;0.00;;;;;;;;5095860;27;45382;-71
2022/04/09 03:23:38;;;;;;;;;0.00;0.00;;;;;;;;5094967;27;45309;-70
2022/04/09 03:26:05;;;;;;;;;0.00;0.00;;;;;;;;5093825;27;45189;-70
2022/04/09 03:28:30;;;;;;;;;0.00;0.00;;;;;;;;5094261;27;46178;-71
2022/04/09 03:30:55;;;;;;;;;0.00;0.00;;;;;;;;5096662;27;45453;-70
2022/04/09 03:33:21;;;;;;;;;0.75;0.00;;;;;;;;5094892;27;45406;-71
2022/04/09 03:35:47;;;;;;;;;0.00;0.00;;;;;;;;5094915;27;45385;-70
2022/04/09 03:38:13;;;;;;;;;0.50;0.50;;;;;;;;5092130;27;46367;-71
2022/04/09 03:40:39;;;;;;;;;0.00;0.00;;;;;;;;5094687;27;45375;-71
2022/04/09 03:43:04;;;;;;;;;0.00;0.00;;;;;;;;5096812;27;45450;-70
2022/04/09 03:45:29;;;;;;;;;0.00;0.00;;;;;;;;5094268;27;45383;-71
2022/04/09 03:47:54;;;;;;;;;0.00;0.00;;;;;;;;5076334;27;46441;-71
2022/04/09 03:50:20;;;;;;;;;0.00;0.00;;;;;;;;5095689;27;45448;-71
2022/04/09 03:52:46;;;;;;;;;1.00;0.00;;;;;;;;5095726;27;45374;-71
2022/04/09 03:55:11;;;;;;;;;0.00;0.00;;;;;;;;5085116;27;45383;-71
2022/04/09 03:57:36;;;;;;;;;0.00;0.00;;;;;;;;5091782;27;45406;-71
2022/04/09 04:00:03;;;;;;;;;0.00;0.00;;;;;;;;5093363;27;45395;-71
2022/04/09 04:02:28;;;;;;;;;0.00;0.00;;;;;;;;5094366;27;45483;-71
2022/04/09 04:04:53;;;;;;;;;0.00;0.00;;;;;;;;5094242;27;45261;-71
2022/04/09 04:07:23;;;;;;;;;0.00;0.00;;;;;;;;5095578;27;46043;-71
2022/04/09 04:09:48;;;;;;;;;0.00;0.00;;;;;;;;5096066;27;45251;-71
2022/04/09 04:12:14;;;;;;;;;1.00;0.00;;;;;;;;5093578;27;45311;-71
2022/04/09 04:14:39;;;;;;;;;0.50;0.50;;;;;;;;5094038;27;45465;-70
2022/04/09 04:17:04;;;;;;;;;0.25;0.25;;;;;;;;5092724;27;46549;-70
2022/04/09 04:19:29;;;;;;;;;0.00;0.00;;;;;;;;5094238;27;45300;-70
2022/04/09 04:21:55;;;;;;;;;0.00;0.00;;;;;;;;5096421;27;45327;-71
2022/04/09 04:24:20;;;;;;;;;0.00;0.00;;;;;;;;5091005;27;45268;-71
2022/04/09 04:26:45;;;;;;;;;0.00;0.00;;;;;;;;5093314;27;46369;-70
2022/04/09 04:29:10;;;;;;;;;0.50;0.50;;;;;;;;5094299;27;45345;-71
2022/04/09 04:31:35;;;;;;;;;0.00;0.00;;;;;;;;5092900;27;45521;-70
2022/04/09 04:34:01;;;;;;;;;0.00;0.00;;;;;;;;5095555;27;45408;-71
2022/04/09 04:36:26;;;;;;;;;0.00;0.00;;;;;;;;5091915;27;46419;-71
2022/04/09 04:38:52;;;;;;;;;0.00;0.00;;;;;;;;5092453;27;45499;-70
2022/04/09 04:41:17;;;;;;;;;0.00;0.00;;;;;;;;5093421;27;45501;-70
2022/04/09 04:43:44;;;;;;;;;0.00;0.00;;;;;;;;5093963;27;45306;-71
2022/04/09 04:46:09;;;;;;;;;0.75;0.00;;;;;;;;5095876;27;45334;-71
2022/04/09 04:48:35;;;;;;;;;0.00;0.00;;;;;;;;5084996;27;45289;-71
2022/04/09 04:51:00;;;;;;;;;0.00;0.00;;;;;;;;5087551;27;45358;-71
2022/04/09 04:53:25;;;;;;;;;0.00;0.00;;;;;;;;5093772;27;45481;-71
2022/04/09 04:55:50;;;;;;;;;0.00;0.00;;;;;;;;5091999;27;46460;-71
2022/04/09 04:58:19;;;;;;;;;0.00;0.00;;;;;;;;5094634;27;45307;-71
2022/04/09 05:00:44;;;;;;;;;0.00;0.00;;;;;;;;5095140;27;45462;-70
2022/04/09 05:03:09;;;;;;;;;0.00;0.00;;;;;;;;5090893;27;45366;-71
2022/04/09 05:05:34;;;;;;;;;0.00;0.00;;;;;;;;5093323;27;45512;-70
2022/04/09 05:08:00;;;;;;;;;0.00;0.00;;;;;;;;5091257;27;45484;-71
2022/04/09 05:10:27;;;;;;;;;0.00;0.00;;;;;;;;5092858;27;45551;-70
2022/04/09 05:12:54;;;;;;;;;0.00;0.00;;;;;;;;5093941;27;45361;-71
2022/04/09 05:15:19;;;;;;;;;0.00;0.00;;;;;;;;5092898;27;45632;-71
2022/04/09 05:17:44;;;;;;;;;0.00;0.00;;;;;;;;5086193;27;45625;-70
2022/04/09 05:20:11;;;;;;;;;0.00;0.00;;;;;;;;5091587;27;45433;-71
2022/04/09 05:22:38;;;;;;;;;0.00;0.00;;;;;;;;5085517;27;45329;-71
2022/04/09 05:25:03;;;;;;;;;0.00;0.00;;;;;;;;5094605;27;45469;-71
2022/04/09 05:27:29;;;;;;;;;0.00;0.00;;;;;;;;5090929;27;45573;-71
2022/04/09 05:29:54;;;;;;;;;0.00;0.00;;;;;;;;5094988;27;45489;-71
2022/04/09 05:32:20;;;;;;;;;0.00;0.00;;;;;;;;5096821;27;45508;-70
2022/04/09 05:34:46;;;;;;;;;0.00;0.00;;;;;;;;5096512;27;45556;-71
2022/04/09 05:37:11;;;;;;;;;0.25;0.25;;;;;;;;5098733;27;45307;-70
2022/04/09 05:39:36;;;;;;;;;0.00;0.00;;;;;;;;5096445;27;45447;-71
2022/04/09 05:42:01;;;;;;;;;2.00;1.00;;;;;;;;5096464;27;45457;-71
2022/04/09 05:44:27;;;;;;;;;0.00;0.00;;;;;;;;5097380;27;45476;-71
2022/04/09 05:46:52;;;;;;;;;0.00;0.00;;;;;;;;5096472;27;45651;-70
2022/04/09 05:49:18;;;;;;;;;0.00;0.00;;;;;;;;5097943;27;45314;-71
2022/04/09 05:51:43;;;;;;;;;0.25;0.00;;;;;;;;5095121;27;45386;-71
2022/04/09 05:54:08;;;;;;;;;0.00;0.00;;;;;;;;5095635;27;45648;-71
2022/04/09 05:56:33;;;;;;;;;0.00;0.00;;;;;;;;5097098;27;45443;-70
2022/04/09 05:58:59;;;;;;;;;0.00;0.00;;;;;;;;5093167;27;45489;-71
2022/04/09 06:01:24;;;;;;;;;0.00;0.00;;;;;;;;5097257;27;45360;-71
2022/04/09 06:03:49;;;;;;;;;0.00;0.00;;;;;;;;5091989;27;46874;-70
2022/04/09 06:06:14;;;;;;;;;0.00;0.00;;;;;;;;5093148;27;45358;-70
2022/04/09 06:08:40;;;;;;;;;0.67;0.67;;;;;;;;5095871;27;45393;-71
2022/04/09 06:11:05;;;;;;;;;0.00;0.00;;;;;;;;5095971;27;45438;-70
2022/04/09 06:13:30;;;;;;;;;0.00;0.00;;;;;;;;5096030;27;45346;-71
2022/04/09 06:15:56;;;;;;;;;0.00;0.00;;;;;;;;5098596;27;45362;-71
2022/04/09 06:18:21;;;;;;;;;0.00;0.00;;;;;;;;5095974;27;45348;-70
2022/04/09 06:20:46;;;;;;;;;0.00;0.00;;;;;;;;5095749;27;45471;-71
2022/04/09 06:23:11;;;;;;;;;0.00;0.00;;;;;;;;5093839;27;45365;-70
2022/04/09 06:25:37;;;;;;;;;0.00;0.00;;;;;;;;5076086;27;45633;-71
2022/04/09 06:28:02;;;;;;;;;0.00;0.00;;;;;;;;5097654;27;45319;-70
2022/04/09 06:30:27;;;;;;;;;0.00;0.00;;;;;;;;5093642;27;45436;-71
2022/04/09 06:32:53;;;;;;;;;1.00;0.00;;;;;;;;5094308;27;45359;-70
2022/04/09 06:35:18;;;;;;;;;0.75;0.75;;;;;;;;5093699;27;45457;-71
2022/04/09 06:37:43;;;;;;;;;0.00;0.00;;;;;;;;5093236;27;45502;-70
2022/04/09 06:40:09;;;;;;;;;0.00;0.00;;;;;;;;5097238;27;45329;-71
2022/04/09 06:42:37;;;;;;;;;0.00;0.00;;;;;;;;5093461;27;45481;-70
2022/04/09 06:45:03;;;;;;;;;0.00;0.00;;;;;;;;5094172;27;45591;-71
2022/04/09 06:47:28;;;;;;;;;0.00;0.00;;;;;;;;5094853;27;45574;-70
2022/04/09 06:49:54;;;;;;;;;0.00;0.00;;;;;;;;5095977;27;45436;-70
2022/04/09 06:52:19;;;;;;;;;0.00;0.00;;;;;;;;5095938;27;46275;-71
2022/04/09 06:54:44;;;;;;;;;0.00;0.00;;;;;;;;5088328;27;45362;-70
2022/04/09 06:57:09;;;;;;;;;0.00;0.00;;;;;;;;5092677;27;48666;-71
2022/04/09 06:59:35;;;;;;;;;0.00;0.00;;;;;;;;5092729;27;45319;-71
2022/04/09 07:02:00;;;;;;;;;0.00;0.00;;;;;;;;5081980;27;46300;-70
2022/04/09 07:04:26;;;;;;;;;0.00;0.00;;;;;;;;5095791;27;45529;-71
2022/04/09 07:06:51;;;;;;;;;0.00;0.00;;;;;;;;5094810;27;45429;-71
2022/04/09 07:09:16;;;;;;;;;0.00;0.00;;;;;;;;5095055;27;45542;-71
2022/04/09 07:11:41;;;;;;;;;0.00;0.00;;;;;;;;5093069;27;45538;-71
2022/04/09 07:14:07;;;;;;;;;0.00;0.00;;;;;;;;5094893;27;45480;-71
2022/04/09 07:16:32;;;;;;;;;0.00;0.00;;;;;;;;5076772;27;45375;-70
2022/04/09 07:18:57;;;;;;;;;1.00;1.00;;;;;;;;5097226;27;45459;-70
2022/04/09 07:21:22;;;;;;;;;0.00;0.00;;;;;;;;5094494;27;46163;-70
2022/04/09 07:23:47;;;;;;;;;0.00;0.00;;;;;;;;5094652;27;45498;-70
2022/04/09 07:26:14;;;;;;;;;2.00;0.00;;;;;;;;5092323;27;45277;-70
2022/04/09 07:28:40;;;;;;;;;1.00;0.00;;;;;;;;5078700;27;45381;-70
2022/04/09 07:31:05;;;;;;;;;0.00;0.00;;;;;;;;5096831;27;47001;-70
2022/04/09 07:33:30;;;;;;;;;0.00;0.00;;;;;;;;5094668;27;45286;-70
2022/04/09 07:35:55;;;;;;;;;0.00;0.00;;;;;;;;5094611;27;45402;-71
2022/04/09 07:38:21;;;;;;;;;0.00;0.00;;;;;;;;5093446;27;45429;-70
2022/04/09 07:40:46;;;;;;;;;1.00;0.00;;;;;;;;5094944;27;45377;-71
2022/04/09 07:43:11;;;;;;;;;0.00;0.00;;;;;;;;5097243;27;45378;-71
2022/04/09 07:45:36;;;;;;;;;0.00;0.00;;;;;;;;5093383;27;45417;-71
2022/04/09 07:48:02;;;;;;;;;0.00;0.00;;;;;;;;5094823;27;45347;-70
2022/04/09 07:50:28;;;;;;;;;0.00;0.00;;;;;;;;5094936;27;45282;-71
2022/04/09 07:52:53;;;;;;;;;1.00;0.00;;;;;;;;5094560;27;45548;-71
2022/04/09 07:55:19;;;;;;;;;0.00;0.00;;;;;;;;5095536;27;45407;-71
2022/04/09 07:57:45;;;;;;;;;0.00;0.00;;;;;;;;5093227;27;45437;-70
2022/04/09 08:00:11;;;;;;;;;0.00;0.00;;;;;;;;5093592;27;47052;-71
2022/04/09 08:02:37;;;;;;;;;0.00;0.00;;;;;;;;5094005;27;45491;-70
2022/04/09 08:05:02;;;;;;;;;0.00;0.00;;;;;;;;5094065;27;45470;-70
2022/04/09 08:07:27;;;;;;;;;0.00;0.00;;;;;;;;5094381;27;45389;-71
2022/04/09 08:09:53;;;;;;;;;0.00;0.00;;;;;;;;5078062;27;46738;-70
2022/04/09 08:12:18;;;;;;;;;1.00;0.00;;;;;;;;5092243;27;45489;-71
2022/04/09 08:14:43;;;;;;;;;0.00;0.00;;;;;;;;5091901;27;45275;-70
2022/04/09 08:17:09;;;;;;;;;0.00;0.00;;;;;;;;5077398;27;45664;-70
2022/04/09 08:19:34;;;;;;;;;0.00;0.00;;;;;;;;5093582;27;47115;-70
2022/04/09 08:22:00;;;;;;;;;0.75;0.00;;;;;;;;5096294;27;45499;-71
2022/04/09 08:24:25;;;;;;;;;0.00;0.00;;;;;;;;5090793;27;45492;-70
2022/04/09 08:26:51;;;;;;;;;0.00;0.00;;;;;;;;5094538;27;45364;-70
2022/04/09 08:29:19;;;;;;;;;0.00;0.00;;;;;;;;5092107;27;45489;-71
2022/04/09 08:31:47;;;;;;;;;0.00;0.00;;;;;;;;5094005;27;45564;-70
2022/04/09 08:34:12;;;;;;;;;0.00;0.00;;;;;;;;5095701;27;45482;-71
2022/04/09 08:36:37;;;;;;;;;0.00;0.00;;;;;;;;5092471;27;45484;-70
2022/04/09 08:39:03;;;;;;;;;0.00;0.00;;;;;;;;5092999;27;45521;-70
2022/04/09 08:41:28;;;;;;;;;0.00;0.00;;;;;;;;5093860;27;45268;-70
2022/04/09 08:43:54;;;;;;;;;0.00;0.00;;;;;;;;5094143;27;45296;-71
2022/04/09 08:46:19;;;;;;;;;0.00;0.00;;;;;;;;5095336;27;45483;-70
2022/04/09 08:48:46;;;;;;;;;0.00;0.00;;;;;;;;5092697;27;46605;-70
2022/04/09 08:51:11;;;;;;;;;0.00;0.00;;;;;;;;5092895;27;45544;-70
2022/04/09 08:53:37;;;;;;;;;0.00;0.00;;;;;;;;5093955;27;45260;-71
2022/04/09 08:56:02;;;;;;;;;0.00;0.00;;;;;;;;5094828;27;45399;-71
2022/04/09 08:58:29;;;;;;;;;0.00;0.00;;;;;;;;5093283;27;46453;-71
2022/04/09 09:00:54;;;;;;;;;0.00;0.00;;;;;;;;5095661;27;45331;-72
2022/04/09 09:03:20;;;;;;;;;0.00;0.00;;;;;;;;5093520;27;45331;-71
2022/04/09 09:05:46;;;;;;;;;1.33;0.00;;;;;;;;5096933;27;45490;-71
2022/04/09 09:08:11;;;;;;;;;0.00;0.00;;;;;;;;5096684;27;45712;-71
2022/04/09 09:10:38;;;;;;;;;0.00;0.00;;;;;;;;5097008;27;45347;-71
2022/04/09 09:13:05;;;;;;;;;0.00;0.00;;;;;;;;5099717;27;45326;-71
2022/04/09 09:15:52;;;;;;;;;0.00;0.00;;;;;;;;5097086;27;45508;-71
2022/04/09 09:18:27;;;;;;;;;0.00;0.00;;;;;;;;5096301;27;46316;-71
2022/04/09 09:20:54;;;;;;;;;0.00;0.00;;;;;;;;5096809;27;45313;-71
2022/04/09 09:23:20;;;;;;;;;0.67;0.67;;;;;;;;5096980;27;45519;-72
2022/04/09 09:25:51;;;;;;;;;0.00;0.00;;;;;;;;5085180;27;45592;-72
2022/04/09 09:28:23;;;;;;;;;1.00;0.00;;;;;;;;5097675;27;45445;-72
2022/04/09 09:30:48;;;;;;;;;0.00;0.00;;;;;;;;5098193;27;45283;-71
2022/04/09 09:33:14;;;;;;;;;0.00;0.00;;;;;;;;5096492;27;45263;-71
2022/04/09 09:35:49;;;;;;;;;0.00;0.00;;;;;;;;5097131;27;45510;-73
2022/04/09 09:38:21;;;;;;;;;0.00;0.00;;;;;;;;5094338;27;45708;-73
2022/04/09 09:40:47;;;;;;;;;3.00;0.00;;;;;;;;5081324;27;45559;-73
2022/04/09 09:43:14;;;;;;;;;0.00;0.00;;;;;;;;5098981;27;45453;-72
2022/04/09 09:45:40;;;;;;;;;0.00;0.00;;;;;;;;5096609;27;48689;-72
2022/04/09 09:48:05;;;;;;;;;3.00;2.00;;;;;;;;5096518;27;46251;-72
2022/04/09 09:50:39;;;;;;;;;6.00;4.50;;;;;;;;5096692;27;45307;-72
2022/04/09 09:53:05;;;;;;;;;6.00;4.00;;;;;;;;5093671;27;45481;-72
2022/04/09 09:55:40;;;;;;;;;4.50;4.50;;;;;;;;5096822;27;45442;-72
2022/04/09 09:58:06;;;;;;;;;4.00;4.00;;;;;;;;5097616;27;45372;-71
2022/04/09 10:00:31;;;;;;;;;3.75;3.75;;;;;;;;5095814;27;45512;-71
2022/04/09 10:02:58;;;;;;;;;5.00;5.00;;;;;;;;5094590;27;45484;-71
2022/04/09 10:05:24;;;;;;;;;4.00;4.00;;;;;;;;5094225;27;45253;-71
2022/04/09 10:07:50;;;;;;;;;5.00;5.00;;;;;;;;5094461;27;46678;-71
2022/04/09 10:10:15;;;;;;;;;5.50;5.00;;;;;;;;5097142;27;45405;-72
2022/04/09 10:12:41;;;;;;;;;5.00;5.00;;;;;;;;5095053;27;45416;-72
2022/04/09 10:15:06;;;;;;;;;5.75;4.00;;;;;;;;5094507;27;45306;-71
2022/04/09 10:17:33;;;;;;;;;6.50;4.50;;;;;;;;5094917;27;46137;-72
2022/04/09 10:19:59;;;;;;;;;4.00;4.00;;;;;;;;5093267;27;45500;-71
2022/04/09 10:22:45;;;;;;;;;4.25;4.25;;;;;;;;5078078;27;45496;-72
2022/04/09 10:25:10;;;;;;;;;4.00;4.00;;;;;;;;5093181;27;46244;-72
2022/04/09 10:28:02;;;;;;;;;6.00;5.00;;;;;;;;5095334;27;45608;-72
2022/04/09 10:30:30;;;;;;;;;4.25;4.25;;;;;;;;5090781;27;45594;-72
2022/04/09 10:32:57;;;;;;;;;6.25;6.25;;;;;;;;5097497;27;45392;-72
2022/04/09 10:35:30;;;;;;;;;4.75;4.75;;;;;;;;5097467;27;45395;-72
2022/04/09 10:38:07;;;;;;;;;7.50;5.00;;;;;;;;5096577;27;45921;-73
2022/04/09 10:40:49;;;;;;;;;4.00;4.00;;;;;;;;5095826;27;45454;-72
2022/04/09 10:43:26;;;;;;;;;2.00;2.00;;;;;;;;5093968;27;45280;-72
2022/04/09 10:46:00;;;;;;;;;3.25;2.50;;;;;;;;5097554;27;45419;-72
2022/04/09 10:48:29;;;;;;;;;3.00;3.00;;;;;;;;5095338;27;45528;-71
2022/04/09 10:50:59;;;;;;;;;2.50;2.00;;;;;;;;5093410;27;45272;-71
2022/04/09 10:53:28;;;;;;;;;2.25;2.25;;;;;;;;5093829;27;45731;-72
2022/04/09 10:56:09;;;;;;;;;1.25;1.25;;;;;;;;5095356;27;45292;-72
2022/04/09 10:58:54;;;;;;;;;2.00;1.00;;;;;;;;5095440;27;46091;-72
2022/04/09 11:01:38;;;;;;;;;1.50;1.50;;;;;;;;5093348;27;45498;-72
2022/04/09 11:04:22;;;;;;;;;2.25;1.00;;;;;;;;5096611;27;45417;-71
2022/04/09 11:07:00;;;;;;;;;2.50;1.00;;;;;;;;5096383;27;45440;-72
2022/04/09 11:09:25;;;;;;;;;1.00;1.00;;;;;;;;5094173;27;45490;-72
2022/04/09 11:12:00;;;;;;;;;1.00;1.00;;;;;;;;5092813;27;45352;-73
2022/04/09 11:14:25;;;;;;;;;0.00;0.00;;;;;;;;5093086;27;45342;-72
2022/04/09 11:16:50;;;;;;;;;1.00;1.00;;;;;;;;5094057;27;45493;-72
2022/04/09 11:19:19;;;;;;;;;1.00;1.00;;;;;;;;5096159;27;47206;-72
2022/04/09 11:21:49;;;;;;;;;0.25;0.25;;;;;;;;5093940;27;45522;-72
2022/04/09 11:24:14;;;;;;;;;1.00;1.00;;;;;;;;5092718;27;45364;-72
2022/04/09 11:26:39;;;;;;;;;0.75;0.75;;;;;;;;5092517;27;45473;-73
2022/04/09 11:29:11;;;;;;;;;0.75;0.75;;;;;;;;5094996;27;46611;-73
2022/04/09 11:31:46;;;;;;;;;1.00;1.00;;;;;;;;5094431;27;45378;-73
2022/04/09 11:34:12;;;;;;;;;1.00;1.00;;;;;;;;5079418;27;45465;-73
2022/04/09 11:36:37;;;;;;;;;0.75;0.75;;;;;;;;5093032;27;45608;-71
2022/04/09 11:39:02;;;;;;;;;1.00;1.00;;;;;;;;5092419;27;46575;-72
2022/04/09 11:41:28;;;;;;;;;1.00;1.00;;;;;;;;5092271;27;45463;-73
2022/04/09 11:43:54;;;;;;;;;2.00;2.00;;;;;;;;5094452;27;45360;-72
2022/04/09 11:46:20;;;;;;;;;1.00;1.00;;;;;;;;5095345;27;45424;-72
2022/04/09 11:48:48;;;;;;;;;0.75;0.75;;;;;;;;5094022;27;45413;-73
2022/04/09 11:51:17;;;;;;;;;0.75;0.50;;;;;;;;5094199;27;45450;-73
2022/04/09 11:53:42;;;;;;;;;0.00;0.00;;;;;;;;5092666;27;45447;-72
2022/04/09 11:56:07;;;;;;;;;2.00;2.00;;;;;;;;5092660;27;45441;-74
2022/04/09 11:58:36;;;;;;;;;0.75;0.75;;;;;;;;5094485;27;45965;-74
2022/04/09 12:01:01;;;;;;;;;0.67;0.67;;;;;;;;5095647;27;45427;-73
2022/04/09 12:03:27;;;;;;;;;1.00;1.00;;;;;;;;5092721;27;45469;-74
2022/04/09 12:05:52;;;;;;;;;1.00;1.00;;;;;;;;5094156;27;45613;-74
2022/04/09 12:08:18;;;;;;;;;1.00;0.00;;;;;;;;5092851;27;46434;-73
2022/04/09 12:11:03;;;;;;;;;1.33;1.00;;;;;;;;5094139;27;45421;-73
2022/04/09 12:13:30;;;;;;;;;0.00;0.00;;;;;;;;5093042;27;45569;-73
2022/04/09 12:15:59;;;;;;;;;1.00;0.00;;;;;;;;5094076;27;45523;-73
2022/04/09 12:18:31;;;;;;;;;0.00;0.00;;;;;;;;5091952;27;45488;-73
2022/04/09 12:20:56;;;;;;;;;0.00;0.00;;;;;;;;5092279;27;45403;-73
2022/04/09 12:23:28;;;;;;;;;1.00;1.00;;;;;;;;5092077;27;45259;-72
2022/04/09 12:25:54;;;;;;;;;1.00;1.00;;;;;;;;5091735;27;45312;-71
2022/04/09 12:28:23;;;;;;;;;2.00;0.50;;;;;;;;5095159;27;45438;-72
2022/04/09 12:30:49;;;;;;;;;1.50;1.00;;;;;;;;5095586;27;45309;-72
2022/04/09 12:33:15;;;;;;;;;1.00;1.00;;;;;;;;5092358;27;45433;-72
2022/04/09 12:35:40;;;;;;;;;1.25;0.00;;;;;;;;5092222;27;45517;-72
2022/04/09 12:38:06;;;;;;;;;0.00;0.00;;;;;;;;5094290;27;46289;-72
2022/04/09 12:40:32;;;;;;;;;1.00;1.00;;;;;;;;5097085;27;45406;-72
2022/04/09 12:42:57;;;;;;;;;0.67;0.33;;;;;;;;5098422;27;45361;-71
2022/04/09 12:45:27;;;;;;;;;0.25;0.25;;;;;;;;5095515;27;45453;-72
2022/04/09 12:47:58;;;;;;;;;0.00;0.00;;;;;;;;5095351;27;45293;-72
2022/04/09 12:50:26;;;;;;;;;0.00;0.00;;;;;;;;5095257;27;46169;-72
2022/04/09 12:52:55;;;;;;;;;0.25;0.25;;;;;;;;5095240;27;45423;-72
2022/04/09 12:55:21;;;;;;;;;1.00;1.00;;;;;;;;5098133;27;45447;-72
2022/04/09 12:57:47;;;;;;;;;0.00;0.00;;;;;;;;5097735;27;45350;-72
2022/04/09 13:00:12;;;;;;;;;0.00;0.00;;;;;;;;5094851;27;45450;-72
2022/04/09 13:02:37;;;;;;;;;0.00;0.00;;;;;;;;5095164;27;45556;-73
2022/04/09 13:05:04;;;;;;;;;0.00;0.00;;;;;;;;5092547;27;45459;-71
2022/04/09 13:07:29;;;;;;;;;1.00;1.00;;;;;;;;5095524;27;45450;-71
2022/04/09 13:09:54;;;;;;;;;1.00;1.00;;;;;;;;5092115;27;45390;-72
2022/04/09 13:12:19;;;;;;;;;1.00;0.00;;;;;;;;5090398;27;46496;-72
2022/04/09 13:14:44;;;;;;;;;0.33;0.33;;;;;;;;5096526;27;45497;-71
2022/04/09 13:17:10;;;;;;;;;0.00;0.00;;;;;;;;5094781;27;45560;-72
2022/04/09 13:19:35;;;;;;;;;3.00;1.00;;;;;;;;5096142;27;45187;-71
2022/04/09 13:22:00;;;;;;;;;1.00;1.00;;;;;;;;5098969;27;45512;-71
2022/04/09 13:24:26;;;;;;;;;1.00;1.00;;;;;;;;5094256;27;45457;-72
2022/04/09 13:26:51;;;;;;;;;0.67;0.67;;;;;;;;5095874;27;46670;-72
2022/04/09 13:29:16;;;;;;;;;1.00;1.00;;;;;;;;5094704;27;45371;-74
2022/04/09 13:31:41;;;;;;;;;0.00;0.00;;;;;;;;5097793;27;45426;-75
2022/04/09 13:34:06;;;;;;;;;1.75;1.75;;;;;;;;5080354;27;45526;-75
2022/04/09 13:36:32;;;;;;;;;1.00;1.00;;;;;;;;5093759;27;45535;-74
2022/04/09 13:38:57;;;;;;;;;1.67;0.33;;;;;;;;5097072;27;45406;-74
2022/04/09 13:41:26;;;;;;;;;1.00;1.00;;;;;;;;5094972;27;45374;-76
2022/04/09 13:43:51;;;;;;;;;0.67;0.67;;;;;;;;5096800;27;45370;-75
2022/04/09 13:46:16;;;;;;;;;1.25;1.00;;;;;;;;5097897;27;45601;-76
2022/04/09 13:48:41;;;;;;;;;2.00;1.00;;;;;;;;5086499;27;45476;-75
2022/04/09 13:51:07;;;;;;;;;1.00;1.00;;;;;;;;5089625;27;45374;-74
2022/04/09 13:53:32;;;;;;;;;1.00;1.00;;;;;;;;5095976;27;45453;-75
2022/04/09 13:55:57;;;;;;;;;0.00;0.00;;;;;;;;5095288;27;45442;-75
2022/04/09 13:58:22;;;;;;;;;0.00;0.00;;;;;;;;5097328;27;45435;-75
2022/04/09 14:00:48;;;;;;;;;1.00;1.00;;;;;;;;5097685;27;45360;-74
2022/04/09 14:03:13;;;;;;;;;0.00;0.00;;;;;;;;5096022;27;45538;-76
2022/04/09 14:05:38;;;;;;;;;1.00;1.00;;;;;;;;5093970;27;46447;-78
2022/04/09 14:08:04;;;;;;;;;0.00;0.00;;;;;;;;5089394;27;45360;-77
2022/04/09 14:10:29;;;;;;;;;1.67;0.00;;;;;;;;5096279;27;45377;-78
2022/04/09 14:12:54;;;;;;;;;0.00;0.00;;;;;;;;5095914;27;45376;-78
2022/04/09 14:15:19;;;;;;;;;0.33;0.33;;;;;;;;5095819;27;46412;-76
2022/04/09 14:17:45;;;;;;;;;0.00;0.00;;;;;;;;5095915;27;45331;-76
2022/04/09 14:20:10;;;;;;;;;0.67;0.67;;;;;;;;5094072;27;45659;-76
2022/04/09 14:22:35;;;;;;;;;0.67;0.67;;;;;;;;5094804;27;45399;-75
2022/04/09 14:25:01;;;;;;;;;0.25;0.25;;;;;;;;5096591;27;46687;-75
2022/04/09 14:27:26;;;;;;;;;0.00;0.00;;;;;;;;5093315;27;45218;-76
2022/04/09 14:29:51;;;;;;;;;0.00;0.00;;;;;;;;5095669;27;45480;-76
2022/04/09 14:32:16;;;;;;;;;0.67;0.67;;;;;;;;5095873;27;45209;-76
2022/04/09 14:34:41;;;;;;;;;1.00;1.00;;;;;;;;5095434;27;45506;-75
2022/04/09 14:37:07;;;;;;;;;0.00;0.00;;;;;;;;5097685;27;45309;-74
2022/04/09 14:39:32;;;;;;;;;0.00;0.00;;;;;;;;5093910;27;45326;-71